createdAt,value
2022-09-20T00:01:25.732Z,53.30
2022-09-20T00:03:54.389Z,54.00
2022-09-20T00:06:23.182Z,53.50
2022-09-20T00:08:49.808Z,53.40
2022-09-20T00:11:18.407Z,53.30
2022-09-20T00:13:45.840Z,53.30
2022-09-20T00:16:17.427Z,53.40
2022-09-20T00:18:44.051Z,53.40
2022-09-20T00:21:17.505Z,53.30
2022-09-20T00:23:44.264Z,53.30
2022-09-20T00:26:10.836Z,53.40
2022-09-20T00:28:37.446Z,53.30
2022-09-20T00:31:04.850Z,53.30
2022-09-20T00:33:49.928Z,53.20
2022-09-20T00:36:16.518Z,53.20
2022-09-20T00:38:43.176Z,53.30
2022-09-20T00:41:09.768Z,53.30
2022-09-20T00:43:43.968Z,53.20
2022-09-20T00:46:29.951Z,53.30
2022-09-20T00:49:18.674Z,53.20
2022-09-20T00:51:47.174Z,53.10
2022-09-20T00:54:18.182Z,53.20
2022-09-20T00:56:46.807Z,53.30
2022-09-20T00:59:23.195Z,53.30
2022-09-20T01:01:53.006Z,53.30
2022-09-20T01:04:21.099Z,53.30
2022-09-20T01:06:47.660Z,53.30
2022-09-20T01:09:14.233Z,53.30
2022-09-20T01:11:40.911Z,53.30
2022-09-20T01:14:07.502Z,53.20
2022-09-20T01:16:34.102Z,53.40
2022-09-20T01:19:02.385Z,53.30
2022-09-20T01:21:28.957Z,53.30
2022-09-20T01:24:13.080Z,53.30
2022-09-20T01:26:52.503Z,53.30
2022-09-20T01:29:36.188Z,53.40
2022-09-20T01:32:03.773Z,53.30
2022-09-20T01:34:34.920Z,53.40
2022-09-20T01:37:30.571Z,53.30
2022-09-20T01:40:12.484Z,53.20
2022-09-20T01:42:45.767Z,53.10
2022-09-20T01:45:28.348Z,53.10
2022-09-20T01:48:19.036Z,53.10
2022-09-20T01:51:12.382Z,53.10
2022-09-20T01:54:13.029Z,53.00
2022-09-20T01:56:48.500Z,53.00
2022-09-20T01:59:38.358Z,53.10
2022-09-20T02:02:26.118Z,53.20
2022-09-20T02:05:08.772Z,53.30
2022-09-20T02:07:35.272Z,53.30
2022-09-20T02:10:14.558Z,53.30
2022-09-20T02:12:54.244Z,53.30
2022-09-20T02:15:47.425Z,53.30
2022-09-20T02:18:37.450Z,53.30
2022-09-20T02:21:15.936Z,53.30
2022-09-20T02:23:56.134Z,53.30
2022-09-20T02:26:31.941Z,53.30
2022-09-20T02:29:14.863Z,53.30
2022-09-20T02:31:53.659Z,53.20
2022-09-20T02:34:25.689Z,53.40
2022-09-20T02:37:28.414Z,53.20
2022-09-20T02:40:08.533Z,53.40
2022-09-20T02:42:51.558Z,53.30
2022-09-20T02:45:28.486Z,53.30
2022-09-20T02:47:56.892Z,53.30
2022-09-20T02:50:35.840Z,53.30
2022-09-20T02:53:32.619Z,53.30
2022-09-20T02:56:19.418Z,53.10
2022-09-20T02:58:45.912Z,53.10
2022-09-20T03:01:46.567Z,53.20
2022-09-20T03:04:34.956Z,53.30
2022-09-20T03:07:06.438Z,53.30
2022-09-20T03:09:51.687Z,53.20
2022-09-20T03:12:33.509Z,53.30
2022-09-20T03:15:28.322Z,53.30
2022-09-20T03:18:03.695Z,53.90
2022-09-20T03:20:51.255Z,53.30
2022-09-20T03:23:54.872Z,53.30
2022-09-20T03:26:30.115Z,53.30
2022-09-20T03:29:19.313Z,53.30
2022-09-20T03:31:57.181Z,53.30
2022-09-20T03:34:33.590Z,53.30
2022-09-20T03:37:16.471Z,53.30
2022-09-20T03:40:04.434Z,53.30
2022-09-20T03:42:31.095Z,53.30
2022-09-20T03:45:46.413Z,53.30
2022-09-20T03:48:36.316Z,53.30
2022-09-20T03:51:23.662Z,53.20
2022-09-20T03:53:53.646Z,53.20
2022-09-20T03:56:29.139Z,53.20
2022-09-20T03:59:04.452Z,53.20
2022-09-20T04:01:58.646Z,53.20
2022-09-20T04:04:40.889Z,53.20
2022-09-20T04:07:31.710Z,53.10
2022-09-20T04:10:01.492Z,53.10
2022-09-20T04:12:47.987Z,53.10
2022-09-20T04:15:32.839Z,53.20
2022-09-20T04:18:16.844Z,53.20
2022-09-20T04:21:17.396Z,53.30
2022-09-20T04:23:49.820Z,53.10
2022-09-20T04:26:22.459Z,53.10
2022-09-20T04:29:01.864Z,53.00
2022-09-20T04:31:52.075Z,52.90
2022-09-20T04:34:45.961Z,52.80
2022-09-20T04:37:26.651Z,52.80
2022-09-20T04:40:04.650Z,52.70
2022-09-20T04:43:07.491Z,52.70
2022-09-20T04:46:02.257Z,52.80
2022-09-20T04:48:52.402Z,53.10
2022-09-20T04:51:21.722Z,53.30
2022-09-20T04:54:19.972Z,53.30
2022-09-20T04:56:57.873Z,53.80
2022-09-20T05:00:02.628Z,53.70
2022-09-20T05:02:49.006Z,53.30
2022-09-20T05:05:35.716Z,52.80
2022-09-20T05:08:31.308Z,52.80
2022-09-20T05:11:35.624Z,53.10
2022-09-20T05:14:22.770Z,53.10
2022-09-20T05:16:58.326Z,53.00
2022-09-20T05:19:48.430Z,53.00
2022-09-20T05:22:41.924Z,53.30
2022-09-20T05:25:28.739Z,52.90
2022-09-20T05:28:29.216Z,52.70
2022-09-20T05:31:06.144Z,52.10
2022-09-20T05:33:39.637Z,52.20
2022-09-20T05:36:34.215Z,52.20
2022-09-20T05:39:13.319Z,52.30
2022-09-20T05:41:52.420Z,52.10
2022-09-20T05:44:21.764Z,52.70
2022-09-20T05:47:26.181Z,52.00
2022-09-20T05:49:57.969Z,52.00
2022-09-20T05:52:38.974Z,52.10
2022-09-20T05:55:20.649Z,52.00
2022-09-20T05:58:23.652Z,51.80
2022-09-20T06:01:22.085Z,51.80
2022-09-20T06:03:55.652Z,51.70
2022-09-20T06:06:32.801Z,51.60
2022-09-20T06:09:28.024Z,51.60
2022-09-20T06:12:20.858Z,51.50
2022-09-20T06:15:03.933Z,51.40
2022-09-20T06:17:37.051Z,51.60
2022-09-20T06:20:16.604Z,51.20
2022-09-20T06:22:50.825Z,51.20
2022-09-20T06:25:22.619Z,51.20
2022-09-20T06:27:54.562Z,51.20
2022-09-20T06:30:33.937Z,51.10
2022-09-20T06:33:10.523Z,51.00
2022-09-20T06:35:43.891Z,51.00
2022-09-20T06:38:55.661Z,51.00
2022-09-20T06:41:28.504Z,50.90
2022-09-20T06:43:59.027Z,51.00
2022-09-20T06:46:32.936Z,50.90
2022-09-20T06:48:59.748Z,51.20
2022-09-20T06:51:27.592Z,50.90
2022-09-20T06:53:54.813Z,50.90
2022-09-20T06:56:25.014Z,50.80
2022-09-20T06:58:52.679Z,50.90
2022-09-20T07:01:29.343Z,51.00
2022-09-20T07:03:57.221Z,51.20
2022-09-20T07:06:23.805Z,51.30
2022-09-20T07:08:50.365Z,51.20
2022-09-20T07:11:17.399Z,51.50
2022-09-20T07:13:44.338Z,51.40
2022-09-20T07:16:13.549Z,51.40
2022-09-20T07:18:41.228Z,51.40
2022-09-20T07:21:15.964Z,51.40
2022-09-20T07:23:42.604Z,51.50
2022-09-20T07:26:26.472Z,51.70
2022-09-20T07:28:53.244Z,51.90
2022-09-20T07:31:21.081Z,51.80
2022-09-20T07:33:47.687Z,51.90
2022-09-20T07:36:14.360Z,51.90
2022-09-20T07:38:41.900Z,51.80
2022-09-20T07:41:08.828Z,51.70
2022-09-20T07:43:35.515Z,51.70
2022-09-20T07:46:02.192Z,51.70
2022-09-20T07:48:34.417Z,51.70
2022-09-20T07:51:08.566Z,51.70
2022-09-20T07:53:36.224Z,51.70
2022-09-20T07:56:04.944Z,51.80
2022-09-20T07:58:33.992Z,51.90
2022-09-20T08:01:08.503Z,51.90
2022-09-20T08:03:35.435Z,51.90
2022-09-20T08:06:06.991Z,51.90
2022-09-20T08:08:37.628Z,51.90
2022-09-20T08:11:08.255Z,51.80
2022-09-20T08:16:29.537Z,51.80
2022-09-20T08:19:00.808Z,51.70
2022-09-20T08:21:29.563Z,51.80
2022-09-20T08:23:56.239Z,51.70
2022-09-20T08:26:24.655Z,51.70
2022-09-20T08:28:52.988Z,51.70
2022-09-20T08:31:21.192Z,51.80
2022-09-20T08:33:48.310Z,51.80
2022-09-20T08:36:17.463Z,51.80
2022-09-20T08:41:34.839Z,51.90
2022-09-20T08:44:25.093Z,51.90
2022-09-20T08:47:25.186Z,51.90
2022-09-20T08:49:56.972Z,51.90
2022-09-20T08:52:37.715Z,51.90
2022-09-20T08:55:16.745Z,52.00
2022-09-20T08:57:43.643Z,52.10
2022-09-20T09:00:17.457Z,52.00
2022-09-20T09:02:44.038Z,52.00
2022-09-20T09:05:33.208Z,52.10
2022-09-20T09:08:04.557Z,52.20
2022-09-20T09:10:42.522Z,52.10
2022-09-20T09:13:14.724Z,52.10
2022-09-20T09:15:41.652Z,52.10
2022-09-20T09:18:10.423Z,52.10
2022-09-20T09:20:41.117Z,52.10
2022-09-20T09:23:09.040Z,52.10
2022-09-20T09:25:39.323Z,52.10
2022-09-20T09:28:08.584Z,52.10
2022-09-20T09:30:42.169Z,52.00
2022-09-20T09:33:24.915Z,52.10
2022-09-20T09:36:04.688Z,52.00
2022-09-20T09:38:36.038Z,52.10
2022-09-20T09:41:05.228Z,52.10
2022-09-20T09:43:35.290Z,52.10
2022-09-20T09:46:21.571Z,52.10
2022-09-20T09:49:05.114Z,52.10
2022-09-20T09:51:32.551Z,52.10
2022-09-20T09:53:59.151Z,52.20
2022-09-20T09:56:47.192Z,52.20
2022-09-20T09:59:33.068Z,52.20
2022-09-20T10:02:26.628Z,52.20
2022-09-20T10:05:03.502Z,52.20
2022-09-20T10:07:43.192Z,52.20
2022-09-20T10:10:43.432Z,52.20
2022-09-20T10:13:34.239Z,52.20
2022-09-20T10:16:29.665Z,52.20
2022-09-20T10:19:22.489Z,52.20
2022-09-20T10:22:12.428Z,52.20
2022-09-20T10:24:59.992Z,52.20
2022-09-20T10:27:41.911Z,52.20
2022-09-20T10:30:22.521Z,52.20
2022-09-20T10:33:18.524Z,52.20
2022-09-20T10:35:52.400Z,52.30
2022-09-20T10:38:45.392Z,52.30
2022-09-20T10:42:09.916Z,52.40
2022-09-20T10:45:01.892Z,52.40
2022-09-20T10:47:35.088Z,52.40
2022-09-20T10:50:10.800Z,52.50
2022-09-20T10:53:08.874Z,52.60
2022-09-20T10:56:22.004Z,52.80
2022-09-20T10:59:16.420Z,52.80
2022-09-20T11:01:45.804Z,52.90
2022-09-20T11:04:25.920Z,52.90
2022-09-20T11:07:09.039Z,52.90
2022-09-20T11:09:38.442Z,52.80
2022-09-20T11:12:21.438Z,52.80
2022-09-20T11:14:59.179Z,53.10
2022-09-20T11:17:31.765Z,52.90
2022-09-20T11:20:07.493Z,54.10
2022-09-20T11:22:40.783Z,54.70
2022-09-20T11:25:29.325Z,55.30
2022-09-20T11:28:00.074Z,53.70
2022-09-20T11:30:28.258Z,53.60
2022-09-20T11:33:11.012Z,53.70
2022-09-20T11:35:42.975Z,53.70
2022-09-20T11:38:32.881Z,55.40
2022-09-20T11:41:25.811Z,54.60
2022-09-20T11:43:53.048Z,54.20
2022-09-20T11:46:40.237Z,53.70
2022-09-20T11:49:16.097Z,53.50
2022-09-20T11:51:42.692Z,53.40
2022-09-20T11:54:46.067Z,53.50
2022-09-20T11:57:14.053Z,53.40
2022-09-20T11:59:40.936Z,53.40
2022-09-20T12:02:22.689Z,53.40
2022-09-20T12:04:53.168Z,53.50
2022-09-20T12:07:24.581Z,53.50
2022-09-20T12:09:58.038Z,53.50
2022-09-20T12:12:41.595Z,53.50
2022-09-20T12:15:34.966Z,53.70
2022-09-20T12:18:08.924Z,53.70
2022-09-20T12:20:35.848Z,53.50
2022-09-20T12:23:42.479Z,53.50
2022-09-20T12:26:20.991Z,53.50
2022-09-20T12:28:49.876Z,53.50
2022-09-20T12:31:22.210Z,53.50
2022-09-20T12:34:11.705Z,53.50
2022-09-20T12:36:46.447Z,53.50
2022-09-20T12:39:16.196Z,53.50
2022-09-20T12:41:46.240Z,53.50
2022-09-20T12:44:44.105Z,53.60
2022-09-20T12:47:10.627Z,54.10
2022-09-20T12:50:04.746Z,53.40
2022-09-20T12:53:03.954Z,53.40
2022-09-20T12:55:33.721Z,53.40
2022-09-20T12:58:14.118Z,53.40
2022-09-20T13:00:57.293Z,53.30
2022-09-20T13:03:37.621Z,53.50
2022-09-20T13:06:07.147Z,53.50
2022-09-20T13:08:49.144Z,53.40
2022-09-20T13:11:18.489Z,53.40
2022-09-20T13:14:04.093Z,53.50
2022-09-20T13:16:37.060Z,53.50
2022-09-20T13:19:12.369Z,53.50
2022-09-20T13:21:40.718Z,53.50
2022-09-20T13:24:08.122Z,53.50
2022-09-20T13:26:39.662Z,53.50
2022-09-20T13:29:07.482Z,53.50
2022-09-20T13:31:35.692Z,53.40
2022-09-20T13:34:22.874Z,53.40
2022-09-20T13:36:55.979Z,53.30
2022-09-20T13:39:28.871Z,53.40
2022-09-20T13:42:02.048Z,53.40
2022-09-20T13:44:33.361Z,53.40
2022-09-20T13:46:59.952Z,53.20
2022-09-20T13:49:30.777Z,53.30
2022-09-20T13:51:57.367Z,53.20
2022-09-20T13:54:31.052Z,53.20
2022-09-20T13:57:13.317Z,53.40
2022-09-20T13:59:45.081Z,53.40
2022-09-20T14:02:31.708Z,53.40
2022-09-20T14:05:03.720Z,53.50
2022-09-20T14:07:30.969Z,53.50
2022-09-20T14:09:58.803Z,53.50
2022-09-20T14:12:25.512Z,53.60
2022-09-20T14:14:52.078Z,53.70
2022-09-20T14:17:20.142Z,53.70
2022-09-20T14:19:48.804Z,53.80
2022-09-20T14:22:21.305Z,53.80
2022-09-20T14:25:04.285Z,53.80
2022-09-20T14:27:31.515Z,53.80
2022-09-20T14:29:58.493Z,54.00
2022-09-20T14:32:28.471Z,53.80
2022-09-20T14:35:17.725Z,53.80
2022-09-20T14:37:52.266Z,53.80
2022-09-20T14:40:22.771Z,53.70
2022-09-20T14:42:56.882Z,53.80
2022-09-20T14:45:33.208Z,53.90
2022-09-20T14:48:06.718Z,54.00
2022-09-20T14:50:37.795Z,54.00
2022-09-20T14:53:13.170Z,54.00
2022-09-20T14:56:00.623Z,54.00
2022-09-20T14:58:27.271Z,54.00
2022-09-20T15:00:58.540Z,54.00
2022-09-20T15:03:32.978Z,54.00
2022-09-20T15:05:59.592Z,54.10
2022-09-20T15:08:26.213Z,54.10
2022-09-20T15:10:52.808Z,54.10
2022-09-20T15:13:19.378Z,54.10
2022-09-20T15:15:49.098Z,54.10
2022-09-20T15:18:23.976Z,54.20
2022-09-20T15:20:50.771Z,54.20
2022-09-20T15:23:17.660Z,54.20
2022-09-20T15:25:44.288Z,54.20
2022-09-20T15:28:14.779Z,54.20
2022-09-20T15:30:41.369Z,54.20
2022-09-20T15:33:09.621Z,54.20
2022-09-20T15:35:36.382Z,54.20
2022-09-20T15:38:03.186Z,54.20
2022-09-20T15:40:30.053Z,54.20
2022-09-20T15:42:58.096Z,54.10
2022-09-20T15:45:26.472Z,54.10
2022-09-20T15:47:55.335Z,54.00
2022-09-20T15:50:25.541Z,54.20
2022-09-20T15:52:52.900Z,55.00
2022-09-20T15:55:21.830Z,54.50
2022-09-20T15:57:51.182Z,53.90
2022-09-20T16:00:18.258Z,53.90
2022-09-20T16:02:48.063Z,53.70
2022-09-20T16:05:14.692Z,53.60
2022-09-20T16:07:41.270Z,53.70
2022-09-20T16:10:08.328Z,53.80
2022-09-20T16:12:34.946Z,53.70
2022-09-20T16:15:01.510Z,53.80
2022-09-20T16:17:46.822Z,53.80
2022-09-20T16:20:13.403Z,53.80
2022-09-20T16:22:39.980Z,53.80
2022-09-20T16:25:08.299Z,53.70
2022-09-20T16:27:34.883Z,53.70
2022-09-20T16:30:02.420Z,53.70
2022-09-20T16:32:29.000Z,53.70
2022-09-20T16:34:55.703Z,54.30
2022-09-20T16:37:23.407Z,53.60
2022-09-20T16:39:50.005Z,53.60
2022-09-20T16:42:16.975Z,53.60
2022-09-20T16:44:43.540Z,53.60
2022-09-20T16:47:16.311Z,53.70
2022-09-20T16:49:42.899Z,53.70
2022-09-20T16:52:09.523Z,53.70
2022-09-20T16:54:36.301Z,53.90
2022-09-20T16:57:02.901Z,53.90
2022-09-20T16:59:29.484Z,53.80
2022-09-20T17:01:56.068Z,54.10
2022-09-20T17:04:22.704Z,54.60
2022-09-20T17:06:49.824Z,53.80
2022-09-20T17:09:16.458Z,54.20
2022-09-20T17:11:47.812Z,54.70
2022-09-20T17:14:15.064Z,54.80
2022-09-20T17:16:42.223Z,54.30
2022-09-20T17:19:10.997Z,54.60
2022-09-20T17:21:39.240Z,54.50
2022-09-20T17:24:07.009Z,54.30
2022-09-20T17:26:36.632Z,54.30
2022-09-20T17:29:05.713Z,54.40
2022-09-20T17:31:35.391Z,54.50
2022-09-20T17:34:06.446Z,54.30
2022-09-20T17:36:34.675Z,54.30
2022-09-20T17:39:04.537Z,54.10
2022-09-20T17:41:31.528Z,54.70
2022-09-20T17:43:58.992Z,55.80
2022-09-20T17:46:31.584Z,55.60
2022-09-20T17:49:00.479Z,54.90
2022-09-20T17:51:28.937Z,54.70
2022-09-20T17:53:58.518Z,54.80
2022-09-20T17:56:28.487Z,55.00
2022-09-20T17:58:59.400Z,54.60
2022-09-20T18:01:27.237Z,54.70
2022-09-20T18:03:54.837Z,54.80
2022-09-20T18:06:23.366Z,54.60
2022-09-20T18:08:54.416Z,54.40
2022-09-20T18:11:22.850Z,54.30
2022-09-20T18:13:49.690Z,54.50
2022-09-20T18:16:17.287Z,54.50
2022-09-20T18:18:44.696Z,54.50
2022-09-20T18:21:22.155Z,54.50
2022-09-20T18:23:48.951Z,54.40
2022-09-20T18:26:22.016Z,54.50
2022-09-20T18:29:12.383Z,54.40
2022-09-20T18:31:45.522Z,54.50
2022-09-20T18:34:19.503Z,54.40
2022-09-20T18:36:52.420Z,54.40
2022-09-20T18:39:23.121Z,54.40
2022-09-20T18:41:50.506Z,54.40
2022-09-20T18:44:18.328Z,54.40
2022-09-20T18:46:45.455Z,54.40
2022-09-20T18:49:13.481Z,54.30
2022-09-20T18:51:40.509Z,54.40
2022-09-20T18:54:09.955Z,54.30
2022-09-20T18:56:37.990Z,54.20
2022-09-20T18:59:06.572Z,54.30
2022-09-20T19:01:54.986Z,54.40
2022-09-20T19:04:27.394Z,54.30
2022-09-20T19:07:25.259Z,54.30
2022-09-20T19:10:10.655Z,54.20
2022-09-20T19:12:45.427Z,54.30
2022-09-20T19:15:21.385Z,54.20
2022-09-20T19:18:01.442Z,54.40
2022-09-20T19:21:13.191Z,54.20
2022-09-20T19:24:05.458Z,54.20
2022-09-20T19:26:37.840Z,54.10
2022-09-20T19:29:31.480Z,54.10
2022-09-20T19:31:58.904Z,54.10
2022-09-20T19:34:27.240Z,54.10
2022-09-20T19:37:06.519Z,54.00
2022-09-20T19:40:03.745Z,54.10
2022-09-20T19:42:53.763Z,54.00
2022-09-20T19:45:51.820Z,54.00
2022-09-20T19:48:38.994Z,53.90
2022-09-20T19:51:17.003Z,53.80
2022-09-20T19:53:43.791Z,53.90
2022-09-20T19:56:27.440Z,53.70
2022-09-20T19:58:55.886Z,53.70
2022-09-20T20:01:23.500Z,53.70
2022-09-20T20:03:51.036Z,53.70
2022-09-20T20:06:22.962Z,53.60
2022-09-20T20:09:06.498Z,53.60
2022-09-20T20:12:01.993Z,53.50
2022-09-20T20:14:44.063Z,53.50
2022-09-20T20:17:20.672Z,53.40
2022-09-20T20:19:54.029Z,53.30
2022-09-20T20:22:47.191Z,53.30
2022-09-20T20:25:26.597Z,53.30
2022-09-20T20:27:53.207Z,53.30
2022-09-20T20:30:20.197Z,53.30
2022-09-20T20:32:46.845Z,53.30
2022-09-20T20:35:14.962Z,53.20
2022-09-20T20:37:41.581Z,53.20
2022-09-20T20:40:12.091Z,53.30
2022-09-20T20:42:39.154Z,53.20
2022-09-20T20:45:06.226Z,53.20
2022-09-20T20:47:34.012Z,53.20
2022-09-20T20:50:00.572Z,53.30
2022-09-20T20:52:27.157Z,53.30
2022-09-20T20:54:53.729Z,53.40
2022-09-20T20:57:20.313Z,53.30
2022-09-20T20:59:46.920Z,53.40
2022-09-20T21:02:13.496Z,53.40
2022-09-20T21:04:40.640Z,53.40
2022-09-20T21:07:07.210Z,53.30
2022-09-20T21:09:33.773Z,53.40
2022-09-20T21:12:00.356Z,53.40
2022-09-20T21:14:26.920Z,53.40
2022-09-20T21:16:53.537Z,53.40
2022-09-20T21:19:22.307Z,53.30
2022-09-20T21:21:48.928Z,53.30
2022-09-20T21:24:17.086Z,53.30
2022-09-20T21:26:43.836Z,53.20
2022-09-20T21:29:11.122Z,53.20
2022-09-20T21:31:39.199Z,53.20
2022-09-20T21:34:09.704Z,53.20
2022-09-20T21:36:36.732Z,53.20
2022-09-20T21:39:03.665Z,53.20
2022-09-20T21:41:34.599Z,53.20
2022-09-20T21:44:02.383Z,53.20
2022-09-20T21:46:33.649Z,53.20
2022-09-20T21:49:01.646Z,53.20
2022-09-20T21:51:31.098Z,53.20
2022-09-20T21:53:59.368Z,53.10
2022-09-20T21:56:27.469Z,53.10
2022-09-20T21:58:54.366Z,53.10
2022-09-20T22:01:22.238Z,53.20
2022-09-20T22:03:54.835Z,53.20
2022-09-20T22:06:25.904Z,53.30
2022-09-20T22:08:54.184Z,53.30
2022-09-20T22:11:21.839Z,53.40
2022-09-20T22:13:49.658Z,53.40
2022-09-20T22:16:20.977Z,53.30
2022-09-20T22:18:47.818Z,53.40
2022-09-20T22:21:21.858Z,53.40
2022-09-20T22:23:49.413Z,53.40
2022-09-20T22:26:17.813Z,53.40
2022-09-20T22:28:44.422Z,53.30
2022-09-20T22:31:15.569Z,53.20
2022-09-20T22:33:43.627Z,53.20
2022-09-20T22:36:11.104Z,53.10
2022-09-20T22:38:37.688Z,53.10
2022-09-20T22:41:04.337Z,53.00
2022-09-20T22:43:32.105Z,53.00
2022-09-20T22:46:03.417Z,53.00
2022-09-20T22:48:33.278Z,53.00
2022-09-20T22:51:04.515Z,53.00
2022-09-20T22:53:31.378Z,53.00
2022-09-20T22:56:21.053Z,53.00
2022-09-20T22:58:49.342Z,53.00
2022-09-20T23:01:19.907Z,53.00
2022-09-20T23:03:47.862Z,53.00
2022-09-20T23:06:22.406Z,53.00
2022-09-20T23:08:49.434Z,53.00
2022-09-20T23:11:16.137Z,53.10
2022-09-20T23:13:43.071Z,53.20
2022-09-20T23:16:29.226Z,53.20
2022-09-20T23:18:56.787Z,53.10
2022-09-20T23:21:23.458Z,53.10
2022-09-20T23:23:54.155Z,53.10
2022-09-20T23:26:20.742Z,53.10
2022-09-20T23:28:54.751Z,53.20
2022-09-20T23:31:21.356Z,53.10
2022-09-20T23:33:52.145Z,53.20
2022-09-20T23:36:18.975Z,53.20
2022-09-20T23:38:45.640Z,53.10
2022-09-20T23:41:13.293Z,53.10
2022-09-20T23:43:40.049Z,53.10
2022-09-20T23:46:06.882Z,53.10
2022-09-20T23:48:36.015Z,53.00
2022-09-20T23:51:03.645Z,53.10
2022-09-20T23:53:30.246Z,53.70
2022-09-20T23:55:56.807Z,53.00
2022-09-20T23:58:23.389Z,53.00
